sensor_id;sensor_type;location;lat;lon;timestamp;temperature;humidity
8537;DHT22;4306;50.210;10.628;2023-02-27T00:00:56;-2.90;99.90
8537;DHT22;4306;50.210;10.628;2023-02-27T00:03:23;-2.90;99.90
8537;DHT22;4306;50.210;10.628;2023-02-27T00:05:50;-2.90;99.90
8537;DHT22;4306;50.210;10.628;2023-02-27T00:08:17;-2.90;99.90
8537;DHT22;4306;50.210;10.628;2023-02-27T00:10:45;-2.90;99.90
8537;DHT22;4306;50.210;10.628;2023-02-27T00:13:12;-2.90;99.90
8537;DHT22;4306;50.210;10.628;2023-02-27T00:15:39;-2.90;99.90
8537;DHT22;4306;50.210;10.628;2023-02-27T00:18:06;-2.90;99.90
8537;DHT22;4306;50.210;10.628;2023-02-27T00:20:33;-3.00;99.90
8537;DHT22;4306;50.210;10.628;2023-02-27T00:23:03;-3.00;99.90
8537;DHT22;4306;50.210;10.628;2023-02-27T00:25:31;-3.00;99.90
8537;DHT22;4306;50.210;10.628;2023-02-27T00:27:59;-3.00;99.90
8537;DHT22;4306;50.210;10.628;2023-02-27T00:30:26;-3.10;99.90
8537;DHT22;4306;50.210;10.628;2023-02-27T00:32:53;-3.10;99.90
8537;DHT22;4306;50.210;10.628;2023-02-27T00:35:20;-3.20;99.90
8537;DHT22;4306;50.210;10.628;2023-02-27T00:37:47;-3.20;99.90
8537;DHT22;4306;50.210;10.628;2023-02-27T00:40:14;-3.20;99.90
8537;DHT22;4306;50.210;10.628;2023-02-27T00:42:41;-3.20;99.90
8537;DHT22;4306;50.210;10.628;2023-02-27T00:45:11;-3.20;99.90
8537;DHT22;4306;50.210;10.628;2023-02-27T00:47:38;-3.20;99.90
8537;DHT22;4306;50.210;10.628;2023-02-27T00:50:05;-3.20;99.90
8537;DHT22;4306;50.210;10.628;2023-02-27T00:52:32;-3.20;99.90
8537;DHT22;4306;50.210;10.628;2023-02-27T00:54:59;-3.20;99.90
8537;DHT22;4306;50.210;10.628;2023-02-27T00:57:26;-3.30;99.90
8537;DHT22;4306;50.210;10.628;2023-02-27T00:59:53;-3.30;99.90
8537;DHT22;4306;50.210;10.628;2023-02-27T01:02:21;-3.30;99.90
8537;DHT22;4306;50.210;10.628;2023-02-27T01:04:48;-3.30;99.90
8537;DHT22;4306;50.210;10.628;2023-02-27T01:07:15;-3.30;99.90
8537;DHT22;4306;50.210;10.628;2023-02-27T01:09:42;-3.30;99.90
8537;DHT22;4306;50.210;10.628;2023-02-27T01:12:09;-3.30;99.90
8537;DHT22;4306;50.210;10.628;2023-02-27T01:14:36;-3.40;99.90
8537;DHT22;4306;50.210;10.628;2023-02-27T01:17:03;-3.40;99.90
8537;DHT22;4306;50.210;10.628;2023-02-27T01:19:31;-3.40;99.90
8537;DHT22;4306;50.210;10.628;2023-02-27T01:21:58;-3.30;99.90
8537;DHT22;4306;50.210;10.628;2023-02-27T01:24:25;-3.40;99.90
8537;DHT22;4306;50.210;10.628;2023-02-27T01:26:52;-3.30;99.90
8537;DHT22;4306;50.210;10.628;2023-02-27T01:29:19;-3.30;99.90
8537;DHT22;4306;50.210;10.628;2023-02-27T01:31:45;-3.30;99.90
8537;DHT22;4306;50.210;10.628;2023-02-27T01:34:13;-3.30;99.90
8537;DHT22;4306;50.210;10.628;2023-02-27T01:36:41;-3.30;99.90
8537;DHT22;4306;50.210;10.628;2023-02-27T01:39:08;-3.20;99.90
8537;DHT22;4306;50.210;10.628;2023-02-27T01:41:35;-3.20;99.90
8537;DHT22;4306;50.210;10.628;2023-02-27T01:44:04;-3.30;99.90
8537;DHT22;4306;50.210;10.628;2023-02-27T01:46:32;-3.30;99.90
8537;DHT22;4306;50.210;10.628;2023-02-27T01:49:01;-3.30;99.90
8537;DHT22;4306;50.210;10.628;2023-02-27T01:51:32;-3.30;99.90
8537;DHT22;4306;50.210;10.628;2023-02-27T01:54:02;-3.40;99.90
8537;DHT22;4306;50.210;10.628;2023-02-27T01:56:31;-3.30;99.90
8537;DHT22;4306;50.210;10.628;2023-02-27T01:59:01;-3.30;99.90
8537;DHT22;4306;50.210;10.628;2023-02-27T02:01:29;-3.40;99.90
8537;DHT22;4306;50.210;10.628;2023-02-27T02:04:02;-3.40;99.90
8537;DHT22;4306;50.210;10.628;2023-02-27T02:06:34;-3.50;99.90
8537;DHT22;4306;50.210;10.628;2023-02-27T02:09:03;-3.40;99.90
8537;DHT22;4306;50.210;10.628;2023-02-27T02:11:31;-3.40;99.90
8537;DHT22;4306;50.210;10.628;2023-02-27T02:13:59;-3.50;99.90
8537;DHT22;4306;50.210;10.628;2023-02-27T02:16:44;-3.50;99.90
8537;DHT22;4306;50.210;10.628;2023-02-27T02:19:41;-3.40;99.90
8537;DHT22;4306;50.210;10.628;2023-02-27T02:25:53;-3.50;99.90
8537;DHT22;4306;50.210;10.628;2023-02-27T02:28:46;-3.60;99.90
8537;DHT22;4306;50.210;10.628;2023-02-27T02:31:35;-3.60;99.90
8537;DHT22;4306;50.210;10.628;2023-02-27T02:34:31;-3.60;99.90
8537;DHT22;4306;50.210;10.628;2023-02-27T02:40:17;-3.60;99.90
8537;DHT22;4306;50.210;10.628;2023-02-27T02:42:47;-3.60;99.90
8537;DHT22;4306;50.210;10.628;2023-02-27T02:45:21;-3.70;99.90
8537;DHT22;4306;50.210;10.628;2023-02-27T02:48:01;-3.70;99.90
8537;DHT22;4306;50.210;10.628;2023-02-27T02:50:34;-3.70;99.90
8537;DHT22;4306;50.210;10.628;2023-02-27T02:53:06;-3.70;99.90
8537;DHT22;4306;50.210;10.628;2023-02-27T02:55:40;-3.80;99.90
8537;DHT22;4306;50.210;10.628;2023-02-27T02:58:11;-3.80;99.90
8537;DHT22;4306;50.210;10.628;2023-02-27T03:00:45;-3.80;99.90
8537;DHT22;4306;50.210;10.628;2023-02-27T03:03:17;-3.80;99.90
8537;DHT22;4306;50.210;10.628;2023-02-27T03:05:49;-3.70;99.90
8537;DHT22;4306;50.210;10.628;2023-02-27T03:08:21;-3.80;99.90
8537;DHT22;4306;50.210;10.628;2023-02-27T03:10:54;-3.70;99.90
8537;DHT22;4306;50.210;10.628;2023-02-27T03:13:26;-3.80;99.90
8537;DHT22;4306;50.210;10.628;2023-02-27T03:16:01;-3.80;99.90
8537;DHT22;4306;50.210;10.628;2023-02-27T03:18:33;-3.80;99.90
8537;DHT22;4306;50.210;10.628;2023-02-27T03:21:06;-3.80;99.90
8537;DHT22;4306;50.210;10.628;2023-02-27T03:23:44;-3.80;99.90
8537;DHT22;4306;50.210;10.628;2023-02-27T03:26:17;-3.70;99.90
8537;DHT22;4306;50.210;10.628;2023-02-27T03:28:51;-3.80;99.90
8537;DHT22;4306;50.210;10.628;2023-02-27T03:31:24;-3.80;99.90
8537;DHT22;4306;50.210;10.628;2023-02-27T03:33:54;-3.80;99.90
8537;DHT22;4306;50.210;10.628;2023-02-27T03:36:27;-3.80;99.90
8537;DHT22;4306;50.210;10.628;2023-02-27T03:39:03;-3.80;99.90
8537;DHT22;4306;50.210;10.628;2023-02-27T03:41:36;-3.90;99.90
8537;DHT22;4306;50.210;10.628;2023-02-27T03:44:09;-3.90;99.90
8537;DHT22;4306;50.210;10.628;2023-02-27T03:46:40;-3.70;99.90
8537;DHT22;4306;50.210;10.628;2023-02-27T03:49:07;-3.80;99.90
8537;DHT22;4306;50.210;10.628;2023-02-27T03:51:35;-3.80;99.90
8537;DHT22;4306;50.210;10.628;2023-02-27T03:54:05;-3.80;99.90
8537;DHT22;4306;50.210;10.628;2023-02-27T03:56:39;-3.90;99.90
8537;DHT22;4306;50.210;10.628;2023-02-27T03:59:07;-3.90;99.90
8537;DHT22;4306;50.210;10.628;2023-02-27T04:01:34;-3.90;99.90
8537;DHT22;4306;50.210;10.628;2023-02-27T04:04:07;-3.90;99.90
8537;DHT22;4306;50.210;10.628;2023-02-27T04:06:37;-4.00;99.90
8537;DHT22;4306;50.210;10.628;2023-02-27T04:09:28;-4.10;99.90
8537;DHT22;4306;50.210;10.628;2023-02-27T04:12:09;-3.90;99.90
8537;DHT22;4306;50.210;10.628;2023-02-27T04:14:48;-4.00;99.90
8537;DHT22;4306;50.210;10.628;2023-02-27T04:17:21;-4.00;99.90
8537;DHT22;4306;50.210;10.628;2023-02-27T04:20:16;-4.00;99.90
8537;DHT22;4306;50.210;10.628;2023-02-27T04:22:46;-4.00;99.90
8537;DHT22;4306;50.210;10.628;2023-02-27T04:25:29;-4.00;99.90
8537;DHT22;4306;50.210;10.628;2023-02-27T04:28:06;-4.00;99.90
8537;DHT22;4306;50.210;10.628;2023-02-27T04:30:41;-4.00;99.90
8537;DHT22;4306;50.210;10.628;2023-02-27T04:33:13;-4.00;99.90
8537;DHT22;4306;50.210;10.628;2023-02-27T04:35:49;-4.00;99.90
8537;DHT22;4306;50.210;10.628;2023-02-27T04:38:21;-4.00;99.90
8537;DHT22;4306;50.210;10.628;2023-02-27T04:40:54;-4.00;99.90
8537;DHT22;4306;50.210;10.628;2023-02-27T04:43:25;-4.00;99.90
8537;DHT22;4306;50.210;10.628;2023-02-27T04:45:55;-4.00;99.90
8537;DHT22;4306;50.210;10.628;2023-02-27T04:48:25;-4.00;99.90
8537;DHT22;4306;50.210;10.628;2023-02-27T04:50:56;-3.90;99.90
8537;DHT22;4306;50.210;10.628;2023-02-27T04:53:26;-3.90;99.90
8537;DHT22;4306;50.210;10.628;2023-02-27T04:55:58;-3.90;99.90
8537;DHT22;4306;50.210;10.628;2023-02-27T04:58:32;-3.90;99.90
8537;DHT22;4306;50.210;10.628;2023-02-27T05:01:03;-3.90;99.90
8537;DHT22;4306;50.210;10.628;2023-02-27T05:03:33;-3.90;99.90
8537;DHT22;4306;50.210;10.628;2023-02-27T05:06:02;-3.90;99.90
8537;DHT22;4306;50.210;10.628;2023-02-27T05:08:33;-3.90;99.90
8537;DHT22;4306;50.210;10.628;2023-02-27T05:11:06;-4.00;99.90
8537;DHT22;4306;50.210;10.628;2023-02-27T05:13:38;-3.90;99.90
8537;DHT22;4306;50.210;10.628;2023-02-27T05:16:12;-3.90;99.90
8537;DHT22;4306;50.210;10.628;2023-02-27T05:18:43;-3.80;99.90
8537;DHT22;4306;50.210;10.628;2023-02-27T05:21:18;-3.90;99.90
8537;DHT22;4306;50.210;10.628;2023-02-27T05:23:55;-3.90;99.90
8537;DHT22;4306;50.210;10.628;2023-02-27T05:26:32;-3.90;99.90
8537;DHT22;4306;50.210;10.628;2023-02-27T05:29:05;-3.90;99.90
8537;DHT22;4306;50.210;10.628;2023-02-27T05:31:42;-4.00;99.90
8537;DHT22;4306;50.210;10.628;2023-02-27T05:34:15;-3.90;99.90
8537;DHT22;4306;50.210;10.628;2023-02-27T05:36:46;-4.00;99.90
8537;DHT22;4306;50.210;10.628;2023-02-27T05:39:19;-4.00;99.90
8537;DHT22;4306;50.210;10.628;2023-02-27T05:41:51;-4.00;99.90
8537;DHT22;4306;50.210;10.628;2023-02-27T05:44:23;-4.00;99.90
8537;DHT22;4306;50.210;10.628;2023-02-27T05:46:53;-4.00;99.90
8537;DHT22;4306;50.210;10.628;2023-02-27T05:49:25;-4.00;99.90
8537;DHT22;4306;50.210;10.628;2023-02-27T05:51:54;-4.00;99.90
8537;DHT22;4306;50.210;10.628;2023-02-27T05:54:28;-4.00;99.90
8537;DHT22;4306;50.210;10.628;2023-02-27T05:56:58;-4.00;99.90
8537;DHT22;4306;50.210;10.628;2023-02-27T05:59:33;-4.00;99.90
8537;DHT22;4306;50.210;10.628;2023-02-27T06:02:01;-4.00;99.90
8537;DHT22;4306;50.210;10.628;2023-02-27T06:04:27;-4.00;99.90
8537;DHT22;4306;50.210;10.628;2023-02-27T06:06:54;-4.00;99.90
8537;DHT22;4306;50.210;10.628;2023-02-27T06:09:22;-4.00;99.90
8537;DHT22;4306;50.210;10.628;2023-02-27T06:11:49;-4.10;99.90
8537;DHT22;4306;50.210;10.628;2023-02-27T06:14:16;-4.10;99.90
8537;DHT22;4306;50.210;10.628;2023-02-27T06:16:44;-4.00;99.90
8537;DHT22;4306;50.210;10.628;2023-02-27T06:19:11;-4.00;99.90
8537;DHT22;4306;50.210;10.628;2023-02-27T06:21:38;-4.00;99.90
8537;DHT22;4306;50.210;10.628;2023-02-27T06:24:05;-4.00;99.90
8537;DHT22;4306;50.210;10.628;2023-02-27T06:26:32;-3.90;99.90
8537;DHT22;4306;50.210;10.628;2023-02-27T06:28:59;-3.90;99.90
8537;DHT22;4306;50.210;10.628;2023-02-27T06:31:25;-3.80;99.90
8537;DHT22;4306;50.210;10.628;2023-02-27T06:33:54;-3.90;99.90
8537;DHT22;4306;50.210;10.628;2023-02-27T06:36:21;-3.80;99.90
8537;DHT22;4306;50.210;10.628;2023-02-27T06:38:48;-3.80;99.90
8537;DHT22;4306;50.210;10.628;2023-02-27T06:41:15;-3.70;99.90
8537;DHT22;4306;50.210;10.628;2023-02-27T06:43:42;-3.70;99.90
8537;DHT22;4306;50.210;10.628;2023-02-27T06:46:08;-3.60;99.90
8537;DHT22;4306;50.210;10.628;2023-02-27T06:48:35;-3.60;99.90
8537;DHT22;4306;50.210;10.628;2023-02-27T06:51:04;-3.50;99.90
8537;DHT22;4306;50.210;10.628;2023-02-27T06:53:31;-3.50;99.90
8537;DHT22;4306;50.210;10.628;2023-02-27T06:55:58;-3.40;99.90
8537;DHT22;4306;50.210;10.628;2023-02-27T06:58:25;-3.30;99.90
8537;DHT22;4306;50.210;10.628;2023-02-27T07:00:52;-3.20;99.90
8537;DHT22;4306;50.210;10.628;2023-02-27T07:03:19;-3.10;99.90
8537;DHT22;4306;50.210;10.628;2023-02-27T07:05:46;-3.00;99.90
8537;DHT22;4306;50.210;10.628;2023-02-27T07:08:14;-2.70;99.90
8537;DHT22;4306;50.210;10.628;2023-02-27T07:10:42;-2.70;99.90
8537;DHT22;4306;50.210;10.628;2023-02-27T07:13:11;-2.70;99.90
8537;DHT22;4306;50.210;10.628;2023-02-27T07:15:38;-2.50;99.90
8537;DHT22;4306;50.210;10.628;2023-02-27T07:18:05;-2.40;99.90
8537;DHT22;4306;50.210;10.628;2023-02-27T07:20:32;-2.30;99.90
8537;DHT22;4306;50.210;10.628;2023-02-27T07:22:59;-2.20;99.90
8537;DHT22;4306;50.210;10.628;2023-02-27T07:25:27;-2.10;99.90
8537;DHT22;4306;50.210;10.628;2023-02-27T07:27:54;-2.10;99.90
8537;DHT22;4306;50.210;10.628;2023-02-27T07:30:21;-2.00;99.90
8537;DHT22;4306;50.210;10.628;2023-02-27T07:32:47;-2.00;99.90
8537;DHT22;4306;50.210;10.628;2023-02-27T07:35:15;-1.90;99.90
8537;DHT22;4306;50.210;10.628;2023-02-27T07:37:43;-1.80;99.90
8537;DHT22;4306;50.210;10.628;2023-02-27T07:40:10;-1.80;99.90
8537;DHT22;4306;50.210;10.628;2023-02-27T07:42:39;-1.80;99.90
8537;DHT22;4306;50.210;10.628;2023-02-27T07:45:07;-1.70;99.90
8537;DHT22;4306;50.210;10.628;2023-02-27T07:47:34;-1.70;99.90
8537;DHT22;4306;50.210;10.628;2023-02-27T07:50:01;-1.70;99.90
8537;DHT22;4306;50.210;10.628;2023-02-27T07:52:28;-1.70;99.90
8537;DHT22;4306;50.210;10.628;2023-02-27T07:54:55;-1.70;99.90
8537;DHT22;4306;50.210;10.628;2023-02-27T07:57:22;-1.60;99.90
8537;DHT22;4306;50.210;10.628;2023-02-27T07:59:51;-1.60;99.90
8537;DHT22;4306;50.210;10.628;2023-02-27T08:02:17;-1.70;99.90
8537;DHT22;4306;50.210;10.628;2023-02-27T08:04:44;-1.60;99.90
8537;DHT22;4306;50.210;10.628;2023-02-27T08:07:12;-1.60;99.90
8537;DHT22;4306;50.210;10.628;2023-02-27T08:09:38;-1.40;99.90
8537;DHT22;4306;50.210;10.628;2023-02-27T08:12:05;-1.40;99.90
8537;DHT22;4306;50.210;10.628;2023-02-27T08:14:32;-1.60;99.90
8537;DHT22;4306;50.210;10.628;2023-02-27T08:17:00;-1.50;99.90
8537;DHT22;4306;50.210;10.628;2023-02-27T08:19:27;-1.50;99.90
8537;DHT22;4306;50.210;10.628;2023-02-27T08:21:54;-1.60;99.90
8537;DHT22;4306;50.210;10.628;2023-02-27T08:24:22;-1.40;99.90
8537;DHT22;4306;50.210;10.628;2023-02-27T08:26:49;-1.40;99.90
8537;DHT22;4306;50.210;10.628;2023-02-27T08:29:16;-1.40;99.90
8537;DHT22;4306;50.210;10.628;2023-02-27T08:31:43;-1.50;99.90
8537;DHT22;4306;50.210;10.628;2023-02-27T08:34:12;-1.40;99.90
8537;DHT22;4306;50.210;10.628;2023-02-27T08:36:40;-1.40;99.90
8537;DHT22;4306;50.210;10.628;2023-02-27T08:39:08;-1.20;99.90
8537;DHT22;4306;50.210;10.628;2023-02-27T08:41:35;-1.30;99.90
8537;DHT22;4306;50.210;10.628;2023-02-27T08:44:02;-1.20;99.90
8537;DHT22;4306;50.210;10.628;2023-02-27T08:46:29;-1.20;99.90
8537;DHT22;4306;50.210;10.628;2023-02-27T08:48:56;-1.10;99.90
8537;DHT22;4306;50.210;10.628;2023-02-27T08:51:24;-1.10;99.90
8537;DHT22;4306;50.210;10.628;2023-02-27T08:53:51;-1.10;99.90
8537;DHT22;4306;50.210;10.628;2023-02-27T08:56:20;-1.10;99.90
8537;DHT22;4306;50.210;10.628;2023-02-27T08:58:47;-1.10;99.90
8537;DHT22;4306;50.210;10.628;2023-02-27T09:01:14;-1.10;99.90
8537;DHT22;4306;50.210;10.628;2023-02-27T09:03:40;-1.10;99.90
8537;DHT22;4306;50.210;10.628;2023-02-27T09:06:07;-0.90;99.70
8537;DHT22;4306;50.210;10.628;2023-02-27T09:08:35;-0.90;99.60
8537;DHT22;4306;50.210;10.628;2023-02-27T09:11:02;-1.00;98.80
8537;DHT22;4306;50.210;10.628;2023-02-27T09:13:30;-0.80;99.20
8537;DHT22;4306;50.210;10.628;2023-02-27T09:15:56;-0.80;99.50
8537;DHT22;4306;50.210;10.628;2023-02-27T09:18:23;-0.80;99.50
8537;DHT22;4306;50.210;10.628;2023-02-27T09:20:50;-0.70;99.10
8537;DHT22;4306;50.210;10.628;2023-02-27T09:23:18;-0.70;99.40
8537;DHT22;4306;50.210;10.628;2023-02-27T09:25:47;-0.50;99.90
8537;DHT22;4306;50.210;10.628;2023-02-27T09:28:14;-0.40;99.70
8537;DHT22;4306;50.210;10.628;2023-02-27T09:30:40;-0.30;99.90
8537;DHT22;4306;50.210;10.628;2023-02-27T09:33:07;-0.30;99.80
8537;DHT22;4306;50.210;10.628;2023-02-27T09:35:34;-0.20;99.90
8537;DHT22;4306;50.210;10.628;2023-02-27T09:38:01;0.00;99.90
8537;DHT22;4306;50.210;10.628;2023-02-27T09:40:31;0.00;99.90
8537;DHT22;4306;50.210;10.628;2023-02-27T09:43:01;-0.10;99.30
8537;DHT22;4306;50.210;10.628;2023-02-27T09:45:33;-0.10;99.30
8537;DHT22;4306;50.210;10.628;2023-02-27T09:48:07;0.00;99.00
8537;DHT22;4306;50.210;10.628;2023-02-27T09:50:39;0.10;98.70
8537;DHT22;4306;50.210;10.628;2023-02-27T09:53:12;0.30;99.40
8537;DHT22;4306;50.210;10.628;2023-02-27T09:55:41;0.50;98.90
8537;DHT22;4306;50.210;10.628;2023-02-27T09:58:28;0.50;98.50
8537;DHT22;4306;50.210;10.628;2023-02-27T10:01:01;0.40;98.00
8537;DHT22;4306;50.210;10.628;2023-02-27T10:06:39;0.50;97.20
8537;DHT22;4306;50.210;10.628;2023-02-27T10:09:27;0.20;97.20
8537;DHT22;4306;50.210;10.628;2023-02-27T10:12:13;0.30;97.10
8537;DHT22;4306;50.210;10.628;2023-02-27T10:14:48;0.40;97.50
8537;DHT22;4306;50.210;10.628;2023-02-27T10:17:20;0.40;97.40
8537;DHT22;4306;50.210;10.628;2023-02-27T10:19:50;0.40;97.20
8537;DHT22;4306;50.210;10.628;2023-02-27T10:22:22;0.40;97.20
8537;DHT22;4306;50.210;10.628;2023-02-27T10:24:56;0.60;96.80
8537;DHT22;4306;50.210;10.628;2023-02-27T10:27:24;0.70;97.20
8537;DHT22;4306;50.210;10.628;2023-02-27T10:29:57;0.70;96.60
8537;DHT22;4306;50.210;10.628;2023-02-27T10:32:30;0.80;96.50
8537;DHT22;4306;50.210;10.628;2023-02-27T10:35:05;1.00;96.70
8537;DHT22;4306;50.210;10.628;2023-02-27T10:37:35;1.10;95.00
8537;DHT22;4306;50.210;10.628;2023-02-27T10:40:04;1.10;94.50
8537;DHT22;4306;50.210;10.628;2023-02-27T10:42:34;1.20;94.60
8537;DHT22;4306;50.210;10.628;2023-02-27T10:45:03;1.30;94.70
8537;DHT22;4306;50.210;10.628;2023-02-27T10:47:30;1.40;94.40
8537;DHT22;4306;50.210;10.628;2023-02-27T10:49:57;1.50;94.20
8537;DHT22;4306;50.210;10.628;2023-02-27T10:52:25;1.50;94.00
8537;DHT22;4306;50.210;10.628;2023-02-27T10:54:51;1.50;93.60
8537;DHT22;4306;50.210;10.628;2023-02-27T10:57:26;1.40;93.30
8537;DHT22;4306;50.210;10.628;2023-02-27T10:59:57;1.50;93.80
8537;DHT22;4306;50.210;10.628;2023-02-27T11:02:29;1.70;93.30
8537;DHT22;4306;50.210;10.628;2023-02-27T11:04:58;1.70;92.60
8537;DHT22;4306;50.210;10.628;2023-02-27T11:07:29;1.70;93.30
8537;DHT22;4306;50.210;10.628;2023-02-27T11:10:02;1.80;93.90
8537;DHT22;4306;50.210;10.628;2023-02-27T11:12:31;1.80;92.10
8537;DHT22;4306;50.210;10.628;2023-02-27T11:15:00;1.80;92.40
8537;DHT22;4306;50.210;10.628;2023-02-27T11:17:30;1.90;92.10
8537;DHT22;4306;50.210;10.628;2023-02-27T11:20:00;2.00;92.60
8537;DHT22;4306;50.210;10.628;2023-02-27T11:22:28;2.00;91.70
8537;DHT22;4306;50.210;10.628;2023-02-27T11:25:17;2.20;92.30
8537;DHT22;4306;50.210;10.628;2023-02-27T11:27:45;2.10;91.40
8537;DHT22;4306;50.210;10.628;2023-02-27T11:30:21;2.30;92.50
8537;DHT22;4306;50.210;10.628;2023-02-27T11:32:50;2.30;90.90
8537;DHT22;4306;50.210;10.628;2023-02-27T11:35:21;2.40;92.50
8537;DHT22;4306;50.210;10.628;2023-02-27T11:37:50;2.50;91.50
8537;DHT22;4306;50.210;10.628;2023-02-27T11:40:20;2.60;91.10
8537;DHT22;4306;50.210;10.628;2023-02-27T11:42:49;2.60;91.00
8537;DHT22;4306;50.210;10.628;2023-02-27T11:45:29;2.70;91.00
8537;DHT22;4306;50.210;10.628;2023-02-27T11:48:00;2.80;90.40
8537;DHT22;4306;50.210;10.628;2023-02-27T11:50:42;2.80;89.80
8537;DHT22;4306;50.210;10.628;2023-02-27T11:53:25;2.80;88.90
8537;DHT22;4306;50.210;10.628;2023-02-27T11:55:59;2.80;89.00
8537;DHT22;4306;50.210;10.628;2023-02-27T11:58:31;2.80;89.40
8537;DHT22;4306;50.210;10.628;2023-02-27T12:01:04;3.00;90.50
8537;DHT22;4306;50.210;10.628;2023-02-27T12:03:37;2.90;88.90
8537;DHT22;4306;50.210;10.628;2023-02-27T12:06:14;3.00;87.40
8537;DHT22;4306;50.210;10.628;2023-02-27T12:08:47;3.00;88.60
8537;DHT22;4306;50.210;10.628;2023-02-27T12:11:21;3.00;85.50
8537;DHT22;4306;50.210;10.628;2023-02-27T12:13:53;3.20;89.70
8537;DHT22;4306;50.210;10.628;2023-02-27T12:16:28;2.70;83.70
8537;DHT22;4306;50.210;10.628;2023-02-27T12:18:58;2.80;85.20
8537;DHT22;4306;50.210;10.628;2023-02-27T12:21:30;2.50;84.60
8537;DHT22;4306;50.210;10.628;2023-02-27T12:24:02;2.70;85.80
8537;DHT22;4306;50.210;10.628;2023-02-27T12:26:36;2.80;87.10
8537;DHT22;4306;50.210;10.628;2023-02-27T12:29:14;2.60;85.30
8537;DHT22;4306;50.210;10.628;2023-02-27T12:31:48;2.60;87.10
8537;DHT22;4306;50.210;10.628;2023-02-27T12:34:24;2.50;85.50
8537;DHT22;4306;50.210;10.628;2023-02-27T12:36:57;2.40;86.10
8537;DHT22;4306;50.210;10.628;2023-02-27T12:39:25;2.50;88.20
8537;DHT22;4306;50.210;10.628;2023-02-27T12:42:08;2.40;86.70
8537;DHT22;4306;50.210;10.628;2023-02-27T12:44:48;2.40;87.40
8537;DHT22;4306;50.210;10.628;2023-02-27T12:47:26;2.60;88.00
8537;DHT22;4306;50.210;10.628;2023-02-27T12:50:00;2.70;85.40
8537;DHT22;4306;50.210;10.628;2023-02-27T12:52:36;2.60;84.90
8537;DHT22;4306;50.210;10.628;2023-02-27T12:55:12;2.70;86.30
8537;DHT22;4306;50.210;10.628;2023-02-27T13:00:41;2.70;85.00
8537;DHT22;4306;50.210;10.628;2023-02-27T13:03:15;2.80;85.60
8537;DHT22;4306;50.210;10.628;2023-02-27T13:05:49;2.90;85.40
8537;DHT22;4306;50.210;10.628;2023-02-27T13:08:33;2.90;84.30
8537;DHT22;4306;50.210;10.628;2023-02-27T13:11:10;3.00;86.50
8537;DHT22;4306;50.210;10.628;2023-02-27T13:13:45;3.20;86.10
8537;DHT22;4306;50.210;10.628;2023-02-27T13:16:16;2.90;83.50
8537;DHT22;4306;50.210;10.628;2023-02-27T13:18:47;2.90;82.40
8537;DHT22;4306;50.210;10.628;2023-02-27T13:21:23;3.00;83.10
8537;DHT22;4306;50.210;10.628;2023-02-27T13:23:57;3.00;84.10
8537;DHT22;4306;50.210;10.628;2023-02-27T13:26:29;3.00;83.10
8537;DHT22;4306;50.210;10.628;2023-02-27T13:28:57;3.00;83.10
8537;DHT22;4306;50.210;10.628;2023-02-27T13:31:33;3.10;83.20
8537;DHT22;4306;50.210;10.628;2023-02-27T13:34:13;3.00;82.60
8537;DHT22;4306;50.210;10.628;2023-02-27T13:36:45;3.10;81.70
8537;DHT22;4306;50.210;10.628;2023-02-27T13:39:36;3.00;82.80
8537;DHT22;4306;50.210;10.628;2023-02-27T13:42:07;3.00;84.00
8537;DHT22;4306;50.210;10.628;2023-02-27T13:44:55;3.00;82.30
8537;DHT22;4306;50.210;10.628;2023-02-27T13:47:39;3.10;83.20
8537;DHT22;4306;50.210;10.628;2023-02-27T13:53:16;3.00;82.10
8537;DHT22;4306;50.210;10.628;2023-02-27T13:55:44;2.90;82.80
8537;DHT22;4306;50.210;10.628;2023-02-27T13:58:16;3.10;83.70
8537;DHT22;4306;50.210;10.628;2023-02-27T14:00:59;2.70;81.60
8537;DHT22;4306;50.210;10.628;2023-02-27T14:03:28;2.50;83.30
8537;DHT22;4306;50.210;10.628;2023-02-27T14:06:00;2.40;81.70
8537;DHT22;4306;50.210;10.628;2023-02-27T14:08:29;2.50;83.10
8537;DHT22;4306;50.210;10.628;2023-02-27T14:11:01;2.80;83.20
8537;DHT22;4306;50.210;10.628;2023-02-27T14:16:58;2.80;82.90
8537;DHT22;4306;50.210;10.628;2023-02-27T14:19:53;3.00;81.20
8537;DHT22;4306;50.210;10.628;2023-02-27T14:22:30;3.10;78.60
8537;DHT22;4306;50.210;10.628;2023-02-27T14:24:59;3.20;78.10
8537;DHT22;4306;50.210;10.628;2023-02-27T14:27:46;3.30;79.30
8537;DHT22;4306;50.210;10.628;2023-02-27T14:30:34;3.50;79.80
8537;DHT22;4306;50.210;10.628;2023-02-27T14:33:16;3.70;78.00
8537;DHT22;4306;50.210;10.628;2023-02-27T14:35:46;3.60;75.70
8537;DHT22;4306;50.210;10.628;2023-02-27T14:38:16;3.70;76.40
8537;DHT22;4306;50.210;10.628;2023-02-27T14:40:52;3.40;73.50
8537;DHT22;4306;50.210;10.628;2023-02-27T14:43:31;3.20;74.30
8537;DHT22;4306;50.210;10.628;2023-02-27T14:46:11;2.70;74.60
8537;DHT22;4306;50.210;10.628;2023-02-27T14:48:41;2.80;76.40
8537;DHT22;4306;50.210;10.628;2023-02-27T14:51:08;2.80;77.10
8537;DHT22;4306;50.210;10.628;2023-02-27T14:53:35;2.70;76.00
8537;DHT22;4306;50.210;10.628;2023-02-27T14:56:03;2.70;76.20
8537;DHT22;4306;50.210;10.628;2023-02-27T14:58:30;2.40;76.20
8537;DHT22;4306;50.210;10.628;2023-02-27T15:01:03;2.40;77.30
8537;DHT22;4306;50.210;10.628;2023-02-27T15:03:37;2.20;78.40
8537;DHT22;4306;50.210;10.628;2023-02-27T15:06:14;2.10;79.80
8537;DHT22;4306;50.210;10.628;2023-02-27T15:08:46;2.00;79.80
8537;DHT22;4306;50.210;10.628;2023-02-27T15:11:14;2.00;81.00
8537;DHT22;4306;50.210;10.628;2023-02-27T15:13:43;2.20;81.00
8537;DHT22;4306;50.210;10.628;2023-02-27T15:16:35;2.00;82.20
8537;DHT22;4306;50.210;10.628;2023-02-27T15:19:15;2.20;82.30
8537;DHT22;4306;50.210;10.628;2023-02-27T15:21:45;1.60;81.70
8537;DHT22;4306;50.210;10.628;2023-02-27T15:24:23;1.60;82.60
8537;DHT22;4306;50.210;10.628;2023-02-27T15:26:55;1.60;84.00
8537;DHT22;4306;50.210;10.628;2023-02-27T15:29:28;1.60;84.20
8537;DHT22;4306;50.210;10.628;2023-02-27T15:31:57;1.60;84.90
8537;DHT22;4306;50.210;10.628;2023-02-27T15:34:24;1.70;86.60
8537;DHT22;4306;50.210;10.628;2023-02-27T15:36:54;1.70;85.70
8537;DHT22;4306;50.210;10.628;2023-02-27T15:39:23;1.60;84.50
8537;DHT22;4306;50.210;10.628;2023-02-27T15:41:52;1.60;85.60
8537;DHT22;4306;50.210;10.628;2023-02-27T15:44:24;1.50;85.50
8537;DHT22;4306;50.210;10.628;2023-02-27T15:46:53;1.50;85.00
8537;DHT22;4306;50.210;10.628;2023-02-27T15:49:22;1.50;84.10
8537;DHT22;4306;50.210;10.628;2023-02-27T15:51:58;1.50;84.70
8537;DHT22;4306;50.210;10.628;2023-02-27T15:54:29;1.40;85.50
8537;DHT22;4306;50.210;10.628;2023-02-27T15:56:57;1.40;86.00
8537;DHT22;4306;50.210;10.628;2023-02-27T15:59:24;1.40;86.40
8537;DHT22;4306;50.210;10.628;2023-02-27T16:01:52;1.50;85.90
8537;DHT22;4306;50.210;10.628;2023-02-27T16:04:23;1.40;86.70
8537;DHT22;4306;50.210;10.628;2023-02-27T16:06:58;1.40;86.60
8537;DHT22;4306;50.210;10.628;2023-02-27T16:09:29;1.50;87.30
8537;DHT22;4306;50.210;10.628;2023-02-27T16:12:21;1.50;87.00
8537;DHT22;4306;50.210;10.628;2023-02-27T16:14:49;1.40;86.40
8537;DHT22;4306;50.210;10.628;2023-02-27T16:17:28;1.30;85.90
8537;DHT22;4306;50.210;10.628;2023-02-27T16:19:57;1.40;86.70
8537;DHT22;4306;50.210;10.628;2023-02-27T16:22:26;1.30;86.30
8537;DHT22;4306;50.210;10.628;2023-02-27T16:25:07;1.30;86.10
8537;DHT22;4306;50.210;10.628;2023-02-27T16:27:34;1.30;86.40
8537;DHT22;4306;50.210;10.628;2023-02-27T16:30:08;1.20;86.20
8537;DHT22;4306;50.210;10.628;2023-02-27T16:32:39;1.20;86.30
8537;DHT22;4306;50.210;10.628;2023-02-27T16:35:15;1.10;86.70
8537;DHT22;4306;50.210;10.628;2023-02-27T16:37:45;1.00;88.30